createdAt,value
2022-10-22T00:00:40.450Z,6.57
2022-10-22T00:03:08.824Z,6.93
2022-10-22T00:05:36.509Z,6.85
2022-10-22T00:08:03.579Z,7.18
2022-10-22T00:10:30.772Z,8.93
2022-10-22T00:12:57.822Z,7.65
2022-10-22T00:15:24.982Z,7.88
2022-10-22T00:17:52.090Z,7.88
2022-10-22T00:20:20.559Z,8.10
2022-10-22T00:22:47.573Z,8.50
2022-10-22T00:25:14.634Z,8.05
2022-10-22T00:27:42.221Z,9.18
2022-10-22T00:30:10.497Z,7.63
2022-10-22T00:32:37.627Z,8.82
2022-10-22T00:35:05.631Z,8.38
2022-10-22T00:37:34.178Z,8.50
2022-10-22T00:40:01.164Z,8.23
2022-10-22T00:42:31.899Z,7.07
2022-10-22T00:45:07.450Z,8.80
2022-10-22T00:47:37.592Z,7.57
2022-10-22T00:50:07.810Z,8.38
2022-10-22T00:52:36.615Z,7.88
2022-10-22T00:55:04.762Z,7.70
2022-10-22T00:57:32.111Z,8.70
2022-10-22T00:59:59.392Z,7.43
2022-10-22T01:02:27.004Z,8.35
2022-10-22T01:04:54.079Z,8.20
2022-10-22T01:07:24.117Z,7.38
2022-10-22T01:10:03.110Z,6.97
2022-10-22T01:12:42.121Z,6.80
2022-10-22T01:15:18.066Z,7.97
2022-10-22T01:17:52.614Z,7.00
2022-10-22T01:20:37.418Z,6.95
2022-10-22T01:23:17.698Z,7.05
2022-10-22T01:25:53.914Z,7.50
2022-10-22T01:28:32.172Z,7.53
2022-10-22T01:31:03.512Z,8.65
2022-10-22T01:33:31.323Z,6.90
2022-10-22T01:36:00.139Z,6.72
2022-10-22T01:38:27.433Z,6.80
2022-10-22T01:40:55.604Z,7.03
2022-10-22T01:43:22.583Z,6.57
2022-10-22T01:45:52.271Z,7.40
2022-10-22T01:48:37.714Z,7.47
2022-10-22T01:51:20.239Z,7.88
2022-10-22T01:53:53.765Z,7.53
2022-10-22T01:56:36.239Z,6.68
2022-10-22T01:59:08.228Z,7.25
2022-10-22T02:01:46.258Z,7.35
2022-10-22T02:04:20.562Z,7.13
2022-10-22T02:06:50.879Z,7.85
2022-10-22T02:09:19.978Z,15.18
2022-10-22T02:11:49.154Z,16.40
2022-10-22T02:14:18.345Z,10.45
2022-10-22T02:16:48.146Z,10.40
2022-10-22T02:19:23.458Z,8.20
2022-10-22T02:24:18.660Z,8.32
2022-10-22T02:26:51.222Z,8.95
2022-10-22T02:29:22.545Z,8.63
2022-10-22T02:31:51.598Z,8.45
2022-10-22T02:34:24.530Z,9.43
2022-10-22T02:36:52.189Z,9.85
2022-10-22T02:39:20.606Z,9.05
2022-10-22T02:41:48.273Z,9.43
2022-10-22T02:44:15.247Z,9.93
2022-10-22T02:46:43.489Z,10.60
2022-10-22T02:49:10.656Z,11.15
2022-10-22T02:51:39.032Z,10.77
2022-10-22T02:54:06.286Z,11.20
2022-10-22T02:56:33.850Z,10.57
2022-10-22T02:59:00.825Z,11.07
2022-10-22T03:01:27.919Z,10.07
2022-10-22T03:03:54.823Z,9.38
2022-10-22T03:06:21.962Z,8.38
2022-10-22T03:08:50.658Z,8.23
2022-10-22T03:11:17.635Z,8.00
2022-10-22T03:13:44.743Z,7.45
2022-10-22T03:16:11.698Z,8.05
2022-10-22T03:18:38.685Z,7.82
2022-10-22T03:21:11.176Z,7.53
2022-10-22T03:23:40.387Z,6.97
2022-10-22T03:26:09.662Z,7.22
2022-10-22T03:28:38.315Z,7.65
2022-10-22T03:31:05.736Z,7.20
2022-10-22T03:33:32.735Z,7.38
2022-10-22T03:36:00.646Z,7.63
2022-10-22T03:38:27.694Z,7.03
2022-10-22T03:40:54.739Z,7.22
2022-10-22T03:43:23.128Z,7.68
2022-10-22T03:45:50.197Z,7.55
2022-10-22T03:48:17.215Z,7.78
2022-10-22T03:50:44.156Z,8.27
2022-10-22T03:53:11.291Z,11.63
2022-10-22T03:55:38.550Z,10.85
2022-10-22T03:58:05.764Z,9.77
2022-10-22T04:00:34.888Z,11.98
2022-10-22T04:03:01.904Z,12.55
2022-10-22T04:05:28.887Z,11.40
2022-10-22T04:07:55.882Z,11.00
2022-10-22T04:10:22.987Z,10.68
2022-10-22T04:12:50.272Z,10.48
2022-10-22T04:15:17.825Z,10.23
2022-10-22T04:17:46.228Z,10.88
2022-10-22T04:20:13.225Z,11.52
2022-10-22T04:22:40.175Z,10.90
2022-10-22T04:25:07.577Z,11.73
2022-10-22T04:27:35.187Z,10.65
2022-10-22T04:30:02.594Z,11.63
2022-10-22T04:32:29.562Z,10.63
2022-10-22T04:34:57.897Z,11.75
2022-10-22T04:37:25.002Z,10.13
2022-10-22T04:39:51.990Z,10.65
2022-10-22T04:42:19.154Z,10.15
2022-10-22T04:44:46.635Z,10.05
2022-10-22T04:47:13.646Z,9.90
2022-10-22T04:49:40.820Z,9.88
2022-10-22T04:52:09.175Z,9.80
2022-10-22T04:54:36.325Z,10.30
2022-10-22T04:57:03.448Z,11.60
2022-10-22T04:59:30.473Z,9.75
2022-10-22T05:01:57.484Z,9.90
2022-10-22T05:04:24.605Z,9.18
2022-10-22T05:06:52.162Z,9.32
2022-10-22T05:09:21.132Z,9.18
2022-10-22T05:11:49.779Z,9.38
2022-10-22T05:14:19.542Z,9.90
2022-10-22T05:16:48.573Z,8.93
2022-10-22T05:19:19.793Z,8.38
2022-10-22T05:21:47.080Z,9.20
2022-10-22T05:24:14.796Z,9.15
2022-10-22T05:26:43.302Z,8.23
2022-10-22T05:29:10.326Z,8.80
2022-10-22T05:31:38.984Z,8.50
2022-10-22T05:34:05.982Z,8.13
2022-10-22T05:36:33.038Z,8.57
2022-10-22T05:39:00.374Z,7.68
2022-10-22T05:41:28.428Z,7.80
2022-10-22T05:43:57.695Z,13.45
2022-10-22T05:46:27.400Z,8.73
2022-10-22T05:48:56.361Z,7.43
2022-10-22T05:51:24.304Z,8.05
2022-10-22T05:53:52.590Z,7.20
2022-10-22T05:56:19.612Z,7.20
2022-10-22T05:58:46.878Z,7.75
2022-10-22T06:01:17.445Z,7.18
2022-10-22T06:03:44.880Z,6.50
2022-10-22T06:06:18.665Z,7.13
2022-10-22T06:08:46.855Z,7.55
2022-10-22T06:11:14.556Z,7.07
2022-10-22T06:13:41.686Z,7.18
2022-10-22T06:16:08.761Z,7.07
2022-10-22T06:18:37.174Z,20.20
2022-10-22T06:21:06.207Z,7.53
2022-10-22T06:23:33.502Z,7.75
2022-10-22T06:26:01.362Z,11.27
2022-10-22T06:28:29.200Z,13.48
2022-10-22T06:30:57.855Z,8.80
2022-10-22T06:33:24.836Z,20.17
2022-10-22T06:35:53.668Z,16.17
2022-10-22T06:38:21.017Z,9.60
2022-10-22T06:40:48.092Z,9.38
2022-10-22T06:43:15.404Z,15.48
2022-10-22T06:45:42.438Z,26.75
2022-10-22T06:48:09.660Z,10.30
2022-10-22T06:50:36.871Z,8.63
2022-10-22T06:53:05.908Z,8.68
2022-10-22T06:55:33.176Z,11.68
2022-10-22T06:58:00.211Z,49.42
2022-10-22T07:00:27.435Z,27.70
2022-10-22T07:02:57.782Z,39.95
2022-10-22T07:05:26.903Z,26.88
2022-10-22T07:07:53.865Z,23.92
2022-10-22T07:10:22.276Z,24.35
2022-10-22T07:12:49.934Z,19.45
2022-10-22T07:15:17.023Z,16.77
2022-10-22T07:17:44.005Z,14.70
2022-10-22T07:20:12.712Z,13.32
2022-10-22T07:22:40.078Z,14.05
2022-10-22T07:25:07.745Z,13.82
2022-10-22T07:27:36.435Z,16.05
2022-10-22T07:30:04.083Z,66.38
2022-10-22T07:32:31.143Z,48.15
2022-10-22T07:34:58.208Z,44.20
2022-10-22T07:37:25.153Z,24.92
2022-10-22T07:39:52.122Z,19.13
2022-10-22T07:42:19.316Z,16.17
2022-10-22T07:44:47.765Z,17.95
2022-10-22T07:47:14.722Z,15.65
2022-10-22T07:49:41.720Z,11.27
2022-10-22T07:52:08.727Z,12.85
2022-10-22T07:54:35.644Z,11.70
2022-10-22T07:57:02.608Z,12.13
2022-10-22T07:59:29.579Z,11.63
2022-10-22T08:01:57.926Z,21.50
2022-10-22T08:04:24.963Z,209.45
2022-10-22T08:06:51.925Z,263.65
2022-10-22T08:09:18.971Z,21.92
2022-10-22T08:11:46.343Z,16.58
2022-10-22T08:14:13.328Z,13.18
2022-10-22T08:16:40.310Z,14.05
2022-10-22T08:19:08.795Z,18.70
2022-10-22T08:21:35.798Z,14.85
2022-10-22T08:24:02.897Z,25.63
2022-10-22T08:26:29.905Z,28.08
2022-10-22T08:28:56.895Z,33.60
2022-10-22T08:31:23.978Z,88.22
2022-10-22T08:33:50.960Z,65.50
2022-10-22T08:36:19.327Z,21.00
2022-10-22T08:38:46.357Z,112.75
2022-10-22T08:41:15.877Z,21.98
2022-10-22T08:44:05.660Z,361.40
2022-10-22T08:46:54.432Z,21.65
2022-10-22T08:49:24.927Z,25.27
2022-10-22T08:51:53.653Z,10.82
2022-10-22T08:54:28.887Z,35.45
2022-10-22T08:59:40.931Z,12.63
2022-10-22T09:02:21.630Z,52.60
2022-10-22T09:04:55.316Z,8.98
2022-10-22T09:07:24.566Z,9.30
2022-10-22T09:09:53.986Z,8.68
2022-10-22T09:12:23.395Z,11.23
2022-10-22T09:14:50.809Z,11.85
2022-10-22T09:17:26.281Z,13.57
2022-10-22T09:20:02.958Z,14.75
2022-10-22T09:22:37.642Z,11.40
2022-10-22T09:25:17.905Z,10.60
2022-10-22T09:27:44.983Z,14.63
2022-10-22T09:30:17.050Z,16.48
2022-10-22T09:32:44.374Z,31.35
2022-10-22T09:35:12.044Z,28.67
2022-10-22T09:37:48.478Z,7.40
2022-10-22T09:40:16.266Z,8.18
2022-10-22T09:42:44.991Z,8.60
2022-10-22T09:45:24.391Z,19.63
2022-10-22T09:48:03.342Z,25.95
2022-10-22T09:50:41.126Z,25.55
2022-10-22T09:53:17.604Z,21.95
2022-10-22T09:55:49.653Z,11.13
2022-10-22T09:58:18.317Z,10.25
2022-10-22T10:00:47.722Z,18.38
2022-10-22T10:03:20.313Z,12.45
2022-10-22T10:05:49.411Z,10.70
2022-10-22T10:08:18.259Z,37.15
2022-10-22T10:10:48.731Z,7.03
2022-10-22T10:13:32.393Z,4.18
2022-10-22T10:16:07.059Z,8.90
2022-10-22T10:18:46.873Z,4.18
2022-10-22T10:21:23.423Z,3.28
2022-10-22T10:23:58.623Z,3.50
2022-10-22T10:26:32.035Z,5.30
2022-10-22T10:29:11.855Z,3.55
2022-10-22T10:31:47.614Z,3.30
2022-10-22T10:34:27.383Z,3.80
2022-10-22T10:37:02.195Z,3.58
2022-10-22T10:42:08.531Z,3.22
2022-10-22T10:47:23.707Z,3.47
2022-10-22T10:49:54.255Z,3.75
2022-10-22T10:52:31.990Z,3.78
2022-10-22T10:55:13.430Z,4.38
2022-10-22T10:57:47.054Z,3.78
2022-10-22T11:00:16.490Z,4.65
2022-10-22T11:03:09.397Z,3.50
2022-10-22T11:05:39.621Z,3.50
2022-10-22T11:08:14.321Z,5.20
2022-10-22T11:10:47.241Z,4.32
2022-10-22T11:13:22.187Z,3.33
2022-10-22T11:15:55.437Z,5.75
2022-10-22T11:18:28.931Z,6.15
2022-10-22T11:21:16.725Z,22.95
2022-10-22T11:23:48.306Z,11.15
2022-10-22T11:26:24.657Z,4.40
2022-10-22T11:28:53.787Z,4.38
2022-10-22T11:31:24.850Z,3.60
2022-10-22T11:34:04.650Z,3.90
2022-10-22T11:36:38.142Z,3.35
2022-10-22T11:39:05.493Z,4.63
2022-10-22T11:41:34.677Z,4.28
2022-10-22T11:44:19.565Z,3.50
2022-10-22T11:46:53.900Z,3.78
2022-10-22T11:49:26.733Z,4.28
2022-10-22T11:52:21.607Z,4.63
2022-10-22T11:54:48.962Z,5.15
2022-10-22T11:57:25.350Z,4.28
2022-10-22T11:59:56.341Z,6.07
2022-10-22T12:02:40.287Z,5.53
2022-10-22T12:05:35.307Z,4.07
2022-10-22T12:08:24.301Z,3.73
2022-10-22T12:11:03.974Z,4.70
2022-10-22T12:13:34.410Z,4.55
2022-10-22T12:16:04.402Z,6.03
2022-10-22T12:18:39.967Z,26.60
2022-10-22T12:21:09.842Z,31.25
2022-10-22T12:23:37.584Z,12.55
2022-10-22T12:26:05.631Z,29.15
2022-10-22T12:28:40.016Z,13.40
2022-10-22T12:31:14.914Z,11.23
2022-10-22T12:36:15.929Z,12.55
2022-10-22T12:38:47.217Z,8.57
2022-10-22T12:41:14.408Z,5.43
2022-10-22T12:43:42.771Z,5.07
2022-10-22T12:46:13.835Z,6.32
2022-10-22T12:48:44.189Z,6.57
2022-10-22T12:51:16.965Z,7.53
2022-10-22T12:53:46.660Z,7.22
2022-10-22T12:56:16.381Z,6.10
2022-10-22T12:58:49.210Z,6.53
2022-10-22T13:01:18.422Z,4.63
2022-10-22T13:03:49.877Z,4.57
2022-10-22T13:06:25.226Z,4.63
2022-10-22T13:09:13.256Z,4.22
2022-10-22T13:11:42.210Z,4.82
2022-10-22T13:14:21.553Z,6.22
2022-10-22T13:17:10.693Z,5.95
2022-10-22T13:19:47.042Z,7.28
2022-10-22T13:22:29.995Z,6.10
2022-10-22T13:24:59.769Z,13.10
2022-10-22T13:27:28.502Z,10.93
2022-10-22T13:30:01.172Z,15.98
2022-10-22T13:32:31.022Z,8.73
2022-10-22T13:35:00.326Z,9.23
2022-10-22T13:37:29.138Z,8.68
2022-10-22T13:39:56.078Z,8.82
2022-10-22T13:42:23.054Z,12.35
2022-10-22T13:44:49.978Z,13.10
2022-10-22T13:47:25.578Z,11.25
2022-10-22T13:52:35.938Z,6.82
2022-10-22T13:55:12.283Z,4.43
2022-10-22T13:57:39.253Z,4.03
2022-10-22T14:00:07.688Z,4.13
2022-10-22T14:02:41.111Z,4.10
2022-10-22T14:05:09.622Z,4.57
2022-10-22T14:07:37.235Z,4.85
2022-10-22T14:10:13.524Z,4.90
2022-10-22T14:12:40.502Z,7.00
2022-10-22T14:15:08.841Z,8.20
2022-10-22T14:17:35.845Z,13.82
2022-10-22T14:20:04.396Z,15.82
2022-10-22T14:22:31.507Z,22.38
2022-10-22T14:24:58.425Z,13.18
2022-10-22T14:27:25.380Z,63.92
2022-10-22T14:29:54.941Z,253.70
2022-10-22T14:32:24.209Z,181.35
2022-10-22T14:34:51.122Z,352.45
2022-10-22T14:37:20.762Z,247.75
2022-10-22T14:39:51.964Z,310.02
2022-10-22T14:42:19.887Z,260.25
2022-10-22T14:44:47.006Z,109.80
2022-10-22T14:47:14.030Z,76.00
2022-10-22T14:49:41.042Z,35.30
2022-10-22T14:52:10.584Z,80.43
2022-10-22T14:54:41.235Z,93.75
2022-10-22T14:57:08.885Z,85.25
2022-10-22T14:59:35.913Z,80.25
2022-10-22T15:02:03.068Z,70.85
2022-10-22T15:04:30.590Z,64.50
2022-10-22T15:06:59.175Z,55.00
2022-10-22T15:09:26.174Z,57.00
2022-10-22T15:11:54.511Z,45.22
2022-10-22T15:14:21.615Z,38.88
2022-10-22T15:16:48.558Z,31.35
2022-10-22T15:19:15.505Z,35.53
2022-10-22T15:24:09.329Z,16.08
2022-10-22T15:26:36.338Z,24.60
2022-10-22T15:29:05.182Z,18.50
2022-10-22T15:31:50.074Z,15.52
2022-10-22T15:34:23.401Z,6.32
2022-10-22T15:36:51.075Z,5.20
2022-10-22T15:39:18.459Z,5.13
2022-10-22T15:41:46.974Z,6.07
2022-10-22T15:44:17.761Z,7.85
2022-10-22T15:46:44.852Z,6.22
2022-10-22T15:49:11.969Z,5.25
2022-10-22T15:51:39.375Z,9.45
2022-10-22T15:54:10.210Z,5.00
2022-10-22T15:56:37.385Z,7.70
2022-10-22T15:59:04.707Z,8.30
2022-10-22T16:01:35.203Z,7.07
2022-10-22T16:04:02.889Z,5.32
2022-10-22T16:06:33.121Z,6.05
2022-10-22T16:09:02.015Z,6.60
2022-10-22T16:11:29.975Z,5.88
2022-10-22T16:13:58.450Z,5.50
2022-10-22T16:16:26.770Z,6.10
2022-10-22T16:18:55.131Z,5.50
2022-10-22T16:21:23.270Z,5.80
2022-10-22T16:23:50.696Z,6.00
2022-10-22T16:26:18.571Z,7.05
2022-10-22T16:28:47.390Z,63.20
2022-10-22T16:31:16.733Z,24.75
2022-10-22T16:33:46.462Z,9.48
2022-10-22T16:36:20.049Z,6.28
2022-10-22T16:38:47.832Z,58.00
2022-10-22T16:41:16.831Z,62.03
2022-10-22T16:43:45.102Z,28.98
2022-10-22T16:46:12.764Z,16.20
2022-10-22T16:48:42.073Z,6.80
2022-10-22T16:51:11.062Z,6.03
2022-10-22T16:53:39.645Z,6.97
2022-10-22T16:56:08.934Z,6.00
2022-10-22T16:58:35.914Z,7.22
2022-10-22T17:01:06.212Z,6.78
2022-10-22T17:03:33.192Z,7.35
2022-10-22T17:06:00.630Z,8.25
2022-10-22T17:08:27.686Z,10.57
2022-10-22T17:10:56.022Z,12.80
2022-10-22T17:13:23.147Z,52.63
2022-10-22T17:15:50.345Z,42.20
2022-10-22T17:18:17.519Z,11.07
2022-10-22T17:20:44.561Z,9.48
2022-10-22T17:23:11.543Z,9.73
2022-10-22T17:25:43.734Z,10.55
2022-10-22T17:28:12.287Z,10.65
2022-10-22T17:30:40.795Z,17.02
2022-10-22T17:33:08.828Z,22.80
2022-10-22T17:35:40.300Z,27.10
2022-10-22T17:38:07.547Z,26.30
2022-10-22T17:40:35.510Z,26.67
2022-10-22T17:43:02.749Z,21.73
2022-10-22T17:45:31.104Z,23.15
2022-10-22T17:47:58.206Z,19.45
2022-10-22T17:50:25.189Z,25.90
2022-10-22T17:52:52.135Z,24.77
2022-10-22T17:55:19.146Z,12.38
2022-10-22T17:57:46.165Z,13.13
2022-10-22T18:00:16.180Z,12.27
2022-10-22T18:02:44.758Z,12.38
2022-10-22T18:05:12.340Z,10.57
2022-10-22T18:07:39.318Z,10.68
2022-10-22T18:10:07.743Z,10.25
2022-10-22T18:12:35.262Z,9.20
2022-10-22T18:15:02.212Z,9.93
2022-10-22T18:17:31.805Z,9.65
2022-10-22T18:20:02.492Z,28.25
2022-10-22T18:22:29.572Z,29.88
2022-10-22T18:24:56.650Z,16.50
2022-10-22T18:27:23.674Z,12.75
2022-10-22T18:29:50.712Z,10.68
2022-10-22T18:32:17.691Z,9.77
2022-10-22T18:34:44.643Z,12.02
2022-10-22T18:37:13.037Z,12.23
2022-10-22T18:39:40.182Z,12.25
2022-10-22T18:42:07.389Z,11.05
2022-10-22T18:44:35.359Z,11.00
2022-10-22T18:47:02.381Z,10.95
2022-10-22T18:49:29.526Z,12.30
2022-10-22T18:51:56.479Z,11.73
2022-10-22T18:54:25.005Z,11.00
2022-10-22T18:56:52.774Z,10.27
2022-10-22T18:59:21.420Z,11.10
2022-10-22T19:01:48.991Z,10.57
2022-10-22T19:04:16.543Z,10.57
2022-10-22T19:06:45.786Z,10.20
2022-10-22T19:09:13.870Z,10.13
2022-10-22T19:11:42.926Z,9.10
2022-10-22T19:14:09.933Z,10.05
2022-10-22T19:16:37.700Z,9.63
2022-10-22T19:19:06.807Z,10.43
2022-10-22T19:21:34.048Z,10.25
2022-10-22T19:24:01.371Z,12.30
2022-10-22T19:26:29.905Z,11.80
2022-10-22T19:28:59.621Z,11.15
2022-10-22T19:31:29.828Z,11.73
2022-10-22T19:33:57.936Z,11.77
2022-10-22T19:36:25.440Z,11.48
2022-10-22T19:38:52.432Z,12.15
2022-10-22T19:41:21.126Z,12.48
2022-10-22T19:43:49.786Z,12.27
2022-10-22T19:46:18.534Z,13.43
2022-10-22T19:51:19.467Z,11.93
2022-10-22T19:53:47.259Z,11.80
2022-10-22T19:56:18.211Z,12.02
2022-10-22T19:58:45.275Z,11.07
2022-10-22T20:01:14.681Z,11.60
2022-10-22T20:03:43.812Z,12.10
2022-10-22T20:06:13.066Z,11.82
2022-10-22T20:08:40.613Z,12.25
2022-10-22T20:11:10.710Z,12.10
2022-10-22T20:16:05.516Z,13.68
2022-10-22T20:18:34.143Z,13.25
2022-10-22T20:21:05.183Z,13.90
2022-10-22T20:23:32.302Z,13.38
2022-10-22T20:25:59.409Z,13.25
2022-10-22T20:28:26.508Z,11.32
2022-10-22T20:30:53.559Z,10.93
2022-10-22T20:33:20.563Z,10.77
2022-10-22T20:35:57.954Z,11.60
2022-10-22T20:38:26.507Z,10.82
2022-10-22T20:41:00.267Z,10.95
2022-10-22T20:43:27.303Z,10.70
2022-10-22T20:45:54.341Z,9.85
2022-10-22T20:48:21.774Z,10.70
2022-10-22T20:50:48.725Z,10.15
2022-10-22T20:53:16.908Z,10.20
2022-10-22T20:55:45.477Z,10.35
2022-10-22T20:58:12.413Z,10.65
2022-10-22T21:00:39.808Z,10.15
2022-10-22T21:03:06.995Z,10.32
2022-10-22T21:05:34.769Z,10.95
2022-10-22T21:08:05.248Z,9.63
2022-10-22T21:10:32.694Z,10.65
2022-10-22T21:13:01.279Z,10.93
2022-10-22T21:15:28.349Z,10.45
2022-10-22T21:17:55.398Z,11.05
2022-10-22T21:20:24.747Z,11.38
2022-10-22T21:22:51.960Z,11.02
2022-10-22T21:25:18.907Z,11.48
2022-10-22T21:27:45.828Z,11.93
2022-10-22T21:30:14.414Z,12.48
2022-10-22T21:32:41.688Z,12.68
2022-10-22T21:35:08.934Z,12.95
2022-10-22T21:37:35.939Z,12.50
2022-10-22T21:40:04.389Z,13.60
2022-10-22T21:42:31.409Z,13.45
2022-10-22T21:44:58.407Z,13.20
2022-10-22T21:47:26.872Z,13.32
2022-10-22T21:49:53.934Z,11.93
2022-10-22T21:52:20.933Z,11.77
2022-10-22T21:54:48.012Z,11.80
2022-10-22T21:57:14.975Z,13.35
2022-10-22T21:59:42.046Z,13.70
2022-10-22T22:02:09.168Z,12.65
2022-10-22T22:04:37.767Z,12.68
2022-10-22T22:07:04.727Z,12.75
2022-10-22T22:09:32.003Z,12.68
2022-10-22T22:11:58.994Z,12.80
2022-10-22T22:14:26.074Z,13.05
2022-10-22T22:16:53.010Z,13.02
2022-10-22T22:19:19.948Z,13.02
2022-10-22T22:21:48.248Z,11.93
2022-10-22T22:24:15.219Z,11.57
2022-10-22T22:26:42.175Z,10.73
2022-10-22T22:29:10.718Z,10.88
2022-10-22T22:31:37.680Z,11.00
2022-10-22T22:34:07.874Z,11.52
2022-10-22T22:36:37.190Z,11.73
2022-10-22T22:39:07.318Z,10.45
2022-10-22T22:41:34.686Z,10.98
2022-10-22T22:44:01.942Z,10.95
2022-10-22T22:46:29.426Z,11.18
2022-10-22T22:48:56.381Z,11.27
2022-10-22T22:51:23.398Z,10.82
2022-10-22T22:53:50.489Z,11.23
2022-10-22T22:56:21.178Z,11.45
2022-10-22T22:58:48.591Z,10.30
2022-10-22T23:01:17.735Z,11.05
2022-10-22T23:03:46.059Z,12.23
2022-10-22T23:06:13.458Z,12.18
2022-10-22T23:08:41.283Z,11.52
2022-10-22T23:11:11.230Z,10.43
2022-10-22T23:13:40.829Z,10.48
2022-10-22T23:16:09.246Z,10.93
2022-10-22T23:18:36.511Z,10.55
2022-10-22T23:21:05.319Z,9.85
2022-10-22T23:23:32.699Z,9.63
2022-10-22T23:25:59.773Z,9.05
2022-10-22T23:28:27.094Z,9.65
2022-10-22T23:30:55.454Z,9.07
2022-10-22T23:33:22.482Z,9.85
2022-10-22T23:35:49.442Z,9.70
2022-10-22T23:38:16.471Z,9.38
2022-10-22T23:40:43.386Z,10.20
2022-10-22T23:43:10.356Z,8.88
2022-10-22T23:45:37.426Z,9.65
2022-10-22T23:48:06.176Z,9.00
2022-10-22T23:50:35.853Z,10.75
2022-10-22T23:53:02.845Z,9.70
2022-10-22T23:55:29.843Z,9.75
2022-10-22T23:57:56.838Z,10.35
